Time;durP1;ratioP1;P1;durP2;ratioP2;P2;SDS_P1;SDS_P2;PMS_P1;PMS_P2;Temp;Humidity;BMP_temperature;BMP_pressure;BME280_temperature;BME280_humidity;BME280_pressure;Samples;Min_cycle;Max_cycle;Signal;HPM_P1;HPM_P2
2021/06/11 00:00:52;;;;;;;11.38;8.25;;;;;;;14.33;91.17;99484.53;5121909;27;20085;-57
2021/06/11 00:03:18;;;;;;;10.75;8.30;;;;;;;14.20;90.75;99485.09;5128627;27;20213;-57
2021/06/11 00:05:44;;;;;;;9.05;7.93;;;;;;;14.25;90.28;99489.22;5144030;27;20130;-57
2021/06/11 00:08:10;;;;;;;12.57;8.73;;;;;;;14.32;90.82;99488.06;5144119;27;20023;-57
2021/06/11 00:10:37;;;;;;;11.55;8.73;;;;;;;14.32;90.48;99490.66;5140212;27;20067;-57
2021/06/11 00:13:04;;;;;;;9.07;8.18;;;;;;;14.42;90.92;99492.88;5124075;27;20046;-58
2021/06/11 00:15:30;;;;;;;9.40;7.80;;;;;;;14.42;89.72;99480.72;5124051;28;20035;-58
2021/06/11 00:17:56;;;;;;;11.75;7.97;;;;;;;14.46;90.23;99486.66;5123909;27;20240;-57
2021/06/11 00:20:22;;;;;;;10.45;7.93;;;;;;;14.44;89.65;99483.28;5123777;28;20342;-57
2021/06/11 00:22:49;;;;;;;9.55;8.10;;;;;;;14.00;90.79;99446.81;5123571;27;20261;-57
2021/06/11 00:25:22;;;;;;;11.20;8.18;;;;;;;14.22;90.21;99496.28;5124083;27;20091;-57
2021/06/11 00:27:49;;;;;;;8.73;7.78;;;;;;;14.18;90.25;99476.47;5123680;27;20030;-57
2021/06/11 00:30:17;;;;;;;9.70;8.60;;;;;;;13.98;90.75;99446.91;5123251;28;20024;-56
2021/06/11 00:32:43;;;;;;;8.60;7.60;;;;;;;14.15;89.82;99472.22;5123786;27;20165;-56
2021/06/11 00:35:10;;;;;;;9.45;8.35;;;;;;;14.17;89.85;99470.44;5123678;28;20031;-56
2021/06/11 00:37:35;;;;;;;10.73;8.02;;;;;;;14.22;90.17;99470.25;5123633;27;20039;-56
2021/06/11 00:40:03;;;;;;;8.20;7.40;;;;;;;14.36;90.58;99472.31;5136869;27;20054;-56
2021/06/11 00:42:29;;;;;;;7.80;6.65;;;;;;;14.29;89.69;99471.69;5124495;27;20072;-57
2021/06/11 00:44:55;;;;;;;8.32;7.45;;;;;;;14.41;90.16;99472.94;5123587;27;20020;-57
2021/06/11 00:47:21;;;;;;;10.32;7.43;;;;;;;14.36;89.26;99464.50;5123070;28;20019;-56
2021/06/11 00:49:48;;;;;;;8.65;7.40;;;;;;;14.39;89.04;99469.56;5123252;28;20312;-57
2021/06/11 00:52:15;;;;;;;11.68;7.72;;;;;;;14.14;89.50;99428.91;5123208;28;20035;-58
2021/06/11 00:54:41;;;;;;;9.23;7.05;;;;;;;14.41;89.40;99466.00;5123329;28;20023;-58
2021/06/11 00:57:07;;;;;;;8.93;7.70;;;;;;;14.28;89.66;99473.47;5123347;28;20099;-58
2021/06/11 00:59:33;;;;;;;9.80;8.02;;;;;;;14.20;89.46;99478.13;5123410;28;20019;-58
2021/06/11 01:01:59;;;;;;;10.40;8.05;;;;;;;14.19;90.36;99479.03;5123150;28;20038;-57
2021/06/11 01:04:24;;;;;;;9.15;7.13;;;;;;;14.18;89.56;99473.88;5136649;27;20027;-57
2021/06/11 01:06:51;;;;;;;8.43;7.68;;;;;;;14.29;89.53;99480.38;5114956;28;20069;-58
2021/06/11 01:09:17;;;;;;;8.90;7.03;;;;;;;14.27;90.04;99481.34;5123200;28;20122;-58
2021/06/11 01:11:45;;;;;;;8.77;7.32;;;;;;;14.10;89.61;99456.81;5130450;27;20027;-58
2021/06/11 01:14:12;;;;;;;9.45;6.97;;;;;;;14.33;89.17;99481.09;5123064;28;20028;-58
2021/06/11 01:16:38;;;;;;;10.23;7.82;;;;;;;14.19;90.62;99481.63;5123227;28;20331;-58
2021/06/11 01:19:06;;;;;;;8.27;7.38;;;;;;;14.27;90.23;99476.97;5122936;28;20023;-58
2021/06/11 01:21:35;;;;;;;9.52;7.88;;;;;;;14.34;89.91;99485.41;5104737;28;20208;-58
2021/06/11 01:24:15;;;;;;;10.00;7.65;;;;;;;14.35;89.89;99481.88;5122950;28;20077;-58
2021/06/11 01:26:50;;;;;;;10.48;8.00;;;;;;;14.30;90.27;99470.78;5123059;28;20051;-58
2021/06/11 01:29:19;;;;;;;10.88;8.20;;;;;;;13.89;89.44;99419.44;5122906;28;20083;-58
2021/06/11 01:31:49;;;;;;;8.93;7.88;;;;;;;14.35;89.75;99473.19;5122684;28;20073;-58
2021/06/11 01:34:22;;;;;;;9.35;8.02;;;;;;;14.29;89.68;99480.38;5122873;28;20381;-57
2021/06/11 01:36:53;;;;;;;9.55;7.80;;;;;;;14.27;89.03;99478.75;5122705;28;20308;-57
2021/06/11 01:39:21;;;;;;;9.15;7.63;;;;;;;14.34;88.94;99474.97;5122878;28;20039;-57
2021/06/11 01:41:49;;;;;;;9.32;7.72;;;;;;;14.38;89.60;99479.16;5122717;28;20036;-56
2021/06/11 01:44:15;;;;;;;9.88;7.63;;;;;;;14.18;88.80;99481.69;5126150;28;20513;-57
2021/06/11 01:46:43;;;;;;;10.00;7.35;;;;;;;14.21;89.03;99487.66;5126882;27;20031;-57
2021/06/11 01:49:10;;;;;;;9.20;7.60;;;;;;;14.32;89.19;99479.38;5126836;28;20038;-57
2021/06/11 01:51:38;;;;;;;10.07;7.63;;;;;;;14.10;88.62;99435.13;5136365;27;20027;-56
2021/06/11 01:54:06;;;;;;;6.82;6.22;;;;;;;14.11;88.62;99429.03;5146697;27;20239;-57
2021/06/11 01:56:32;;;;;;;9.75;7.10;;;;;;;14.49;89.10;99486.50;5146552;27;20347;-57
2021/06/11 01:58:58;;;;;;;9.50;7.22;;;;;;;14.29;88.58;99485.59;5128798;27;20086;-57
2021/06/11 02:01:25;;;;;;;8.15;6.78;;;;;;;14.38;88.97;99483.50;5138354;27;20051;-57
2021/06/11 02:03:52;;;;;;;6.75;6.07;;;;;;;14.06;89.36;99434.38;5121153;27;20031;-57
2021/06/11 02:06:21;;;;;;;7.88;7.00;;;;;;;14.25;88.72;99467.50;5126548;27;20098;-56
2021/06/11 02:08:50;;;;;;;11.20;6.75;;;;;;;13.94;89.40;99459.16;5126463;27;20027;-57
2021/06/11 02:11:17;;;;;;;10.27;7.35;;;;;;;14.33;88.52;99492.34;5126267;28;20035;-56
2021/06/11 02:13:45;;;;;;;8.73;6.88;;;;;;;14.33;89.04;99488.91;5126676;27;20026;-58
2021/06/11 02:16:12;;;;;;;8.32;7.47;;;;;;;14.44;88.13;99496.28;5126408;27;20219;-57
2021/06/11 02:18:38;;;;;;;9.32;7.47;;;;;;;14.42;88.33;99480.72;5126437;27;20027;-56
2021/06/11 02:21:06;;;;;;;9.13;7.10;;;;;;;14.45;88.29;99485.81;5126123;28;20039;-56
2021/06/11 02:23:34;;;;;;;9.65;7.07;;;;;;;13.99;88.79;99430.34;5131490;27;20055;-57
2021/06/11 02:26:04;;;;;;;12.93;7.65;;;;;;;14.20;89.34;99465.09;5126219;28;20036;-56
2021/06/11 02:28:30;;;;;;;8.38;7.57;;;;;;;14.43;89.35;99498.03;5108053;28;20245;-56
2021/06/11 02:30:58;;;;;;;7.47;6.70;;;;;;;14.39;88.55;99504.28;5125954;27;20028;-57
2021/06/11 02:33:25;;;;;;;10.55;8.50;;;;;;;14.37;89.70;99498.28;5126063;28;20088;-57
2021/06/11 02:35:51;;;;;;;8.77;6.53;;;;;;;14.22;88.85;99467.63;5117880;27;20039;-58
2021/06/11 02:38:17;;;;;;;9.10;6.60;;;;;;;14.43;89.07;99499.81;5125551;28;20023;-58
2021/06/11 02:40:42;;;;;;;8.07;7.32;;;;;;;14.32;89.38;99498.47;5107604;28;20224;-57
2021/06/11 02:43:17;;;;;;;13.23;8.48;;;;;;;14.39;89.02;99495.63;5139899;27;20031;-56
2021/06/11 02:46:04;;;;;;;8.50;7.53;;;;;;;14.03;89.08;99444.09;5143214;27;20034;-56
2021/06/11 02:48:38;;;;;;;9.15;7.80;;;;;;;14.46;89.62;99502.28;5125814;27;20032;-57
2021/06/11 02:51:23;;;;;;;9.05;7.53;;;;;;;14.07;89.21;99443.91;5125443;27;20023;-57
2021/06/11 02:53:50;;;;;;;11.57;6.97;;;;;;;14.52;89.44;99503.78;5144642;27;20031;-57
2021/06/11 02:56:23;;;;;;;8.55;7.57;;;;;;;14.13;88.69;99453.22;5145436;27;20636;-57
2021/06/11 02:58:58;;;;;;;12.98;8.07;;;;;;;14.41;89.08;99505.09;5125403;27;20035;-58
2021/06/11 03:01:24;;;;;;;8.57;7.45;;;;;;;14.37;89.28;99498.28;5125189;27;20098;-56
2021/06/11 03:03:52;;;;;;;10.15;8.35;;;;;;;14.29;89.27;99490.78;5120026;28;20027;-58
2021/06/11 03:06:21;;;;;;;10.95;7.60;;;;;;;14.35;89.37;99502.72;5124761;27;20038;-56
2021/06/11 03:08:50;;;;;;;9.32;7.97;;;;;;;14.41;89.22;99506.81;5144932;27;20316;-57
2021/06/11 03:11:25;;;;;;;8.98;8.07;;;;;;;14.23;88.96;99503.22;5129965;27;20142;-57
2021/06/11 03:13:51;;;;;;;9.35;7.93;;;;;;;14.12;90.56;99501.88;5116984;27;20036;-57
2021/06/11 03:16:17;;;;;;;9.23;8.05;;;;;;;14.20;89.94;99500.72;5132535;27;20208;-57
2021/06/11 03:18:50;;;;;;;9.40;7.88;;;;;;;14.22;90.42;99512.75;5145012;27;20031;-57
2021/06/11 03:21:24;;;;;;;9.77;7.97;;;;;;;14.18;89.49;99507.75;5139662;27;20085;-57
2021/06/11 03:24:08;;;;;;;9.73;7.50;;;;;;;14.13;89.85;99510.53;5126820;27;20029;-57
2021/06/11 03:26:40;;;;;;;9.52;8.63;;;;;;;13.85;89.87;99454.31;5126559;27;20034;-55
2021/06/11 03:29:10;;;;;;;9.68;8.60;;;;;;;13.86;91.22;99466.41;5145289;27;20087;-56
2021/06/11 03:31:41;;;;;;;9.65;7.97;;;;;;;13.99;90.49;99472.00;5134801;27;20023;-56
2021/06/11 03:34:12;;;;;;;10.65;8.43;;;;;;;13.91;90.53;99459.28;5124956;28;20023;-56
2021/06/11 03:36:42;;;;;;;10.25;8.52;;;;;;;13.83;90.08;99458.72;5122873;27;20059;-56
2021/06/11 03:39:15;;;;;;;9.20;8.35;;;;;;;13.83;91.15;99466.53;5123456;27;20563;-56
2021/06/11 03:41:42;;;;;;;11.02;8.82;;;;;;;14.02;91.47;99512.69;5124458;27;20068;-56
2021/06/11 03:44:10;;;;;;;9.25;8.27;;;;;;;14.02;91.23;99499.69;5124533;27;20210;-58
2021/06/11 03:46:39;;;;;;;12.85;9.50;;;;;;;13.78;91.49;99453.72;5124561;28;20031;-57
2021/06/11 03:49:08;;;;;;;10.43;8.90;;;;;;;13.84;91.30;99464.78;5124486;27;20102;-58
2021/06/11 03:51:36;;;;;;;10.70;9.55;;;;;;;14.27;91.58;99517.81;5126678;27;20223;-57
2021/06/11 03:54:07;;;;;;;10.88;9.00;;;;;;;14.11;92.43;99514.97;5124640;28;20039;-57
2021/06/11 03:56:35;;;;;;;11.50;8.73;;;;;;;14.09;91.56;99522.81;5124665;27;20024;-57
2021/06/11 03:59:02;;;;;;;10.52;8.68;;;;;;;14.13;92.16;99519.19;5124421;27;20437;-57
2021/06/11 04:01:34;;;;;;;12.10;9.45;;;;;;;13.81;91.58;99471.81;5105953;28;20198;-57
2021/06/11 04:04:01;;;;;;;10.02;8.80;;;;;;;14.08;92.36;99517.66;5134406;27;20099;-56
2021/06/11 04:06:37;;;;;;;10.80;9.65;;;;;;;14.09;91.53;99519.38;5143485;27;20023;-57
2021/06/11 04:09:08;;;;;;;11.02;9.48;;;;;;;13.79;92.15;99459.75;5144299;27;20368;-56
2021/06/11 04:11:43;;;;;;;10.67;9.00;;;;;;;13.79;91.82;99464.97;5126280;27;20058;-57
2021/06/11 04:14:13;;;;;;;9.38;8.18;;;;;;;13.82;92.28;99467.44;5124017;27;20036;-58
2021/06/11 04:16:42;;;;;;;10.35;8.63;;;;;;;14.17;92.65;99534.72;5123940;28;20324;-57
2021/06/11 04:19:18;;;;;;;10.55;9.45;;;;;;;14.11;92.69;99518.41;5124135;27;20091;-57
2021/06/11 04:21:46;;;;;;;10.02;8.68;;;;;;;14.10;92.99;99521.91;5123500;27;20081;-58
2021/06/11 04:24:13;;;;;;;9.82;8.55;;;;;;;14.23;92.61;99516.22;5123764;27;20015;-57
2021/06/11 04:26:41;;;;;;;9.15;8.25;;;;;;;14.25;92.26;99517.88;5125689;27;20027;-58
2021/06/11 04:29:09;;;;;;;8.93;7.75;;;;;;;13.93;93.25;99478.28;5143908;27;20137;-57
2021/06/11 04:31:35;;;;;;;8.85;8.05;;;;;;;14.20;93.05;99521.56;5124271;27;20023;-57
2021/06/11 04:34:01;;;;;;;10.95;7.68;;;;;;;14.12;92.98;99524.44;5123681;27;20031;-58
2021/06/11 04:36:28;;;;;;;8.25;7.45;;;;;;;14.07;93.46;99506.41;5123812;27;20031;-56
2021/06/11 04:38:58;;;;;;;7.80;7.10;;;;;;;14.23;93.09;99527.50;5105369;28;20040;-56
2021/06/11 04:41:26;;;;;;;8.07;7.28;;;;;;;14.22;93.06;99520.56;5123337;28;20377;-56
2021/06/11 04:43:52;;;;;;;7.65;6.78;;;;;;;14.20;91.97;99524.16;5118779;27;20034;-57
2021/06/11 04:46:18;;;;;;;7.15;6.45;;;;;;;14.14;93.08;99525.25;5143537;27;20055;-56
2021/06/11 04:48:45;;;;;;;9.10;7.78;;;;;;;14.13;93.64;99520.94;5143168;27;20043;-59
2021/06/11 04:51:11;;;;;;;8.68;7.32;;;;;;;14.17;93.28;99525.13;5139778;27;20031;-57
2021/06/11 04:53:37;;;;;;;8.05;7.18;;;;;;;14.00;93.83;99475.47;5123176;28;20311;-57
2021/06/11 04:56:07;;;;;;;8.70;7.90;;;;;;;14.27;93.47;99518.66;5123424;28;20024;-57
2021/06/11 04:58:37;;;;;;;9.02;8.20;;;;;;;14.25;93.30;99524.81;5123288;28;20039;-57
2021/06/11 05:01:04;;;;;;;9.70;8.75;;;;;;;14.27;94.12;99520.41;5123568;28;20030;-57
2021/06/11 05:03:31;;;;;;;10.02;9.05;;;;;;;14.27;93.73;99523.84;5129013;27;20031;-59
2021/06/11 05:05:56;;;;;;;9.05;8.23;;;;;;;14.26;93.29;99522.16;5143103;27;20132;-58
2021/06/11 05:08:22;;;;;;;8.57;7.78;;;;;;;14.35;93.48;99520.97;5143032;27;20023;-59
2021/06/11 05:10:48;;;;;;;10.73;9.23;;;;;;;14.28;94.05;99520.34;5142920;27;20042;-58
2021/06/11 05:13:14;;;;;;;9.43;8.52;;;;;;;14.24;92.54;99521.38;5123161;28;20197;-58
2021/06/11 05:15:40;;;;;;;9.98;9.02;;;;;;;14.22;93.92;99520.56;5123461;27;20301;-58
2021/06/11 05:18:07;;;;;;;11.32;9.52;;;;;;;14.27;93.12;99517.81;5122425;28;20035;-58
2021/06/11 05:20:34;;;;;;;11.20;10.10;;;;;;;14.27;92.72;99526.47;5123187;28;20127;-57
2021/06/11 05:23:01;;;;;;;11.82;10.57;;;;;;;14.44;93.59;99524.97;5122719;28;20103;-57
2021/06/11 05:25:27;;;;;;;12.20;10.57;;;;;;;14.48;93.54;99532.59;5123118;28;20090;-57
2021/06/11 05:27:53;;;;;;;12.95;10.02;;;;;;;14.29;93.23;99524.66;5123093;28;20039;-58
2021/06/11 05:30:19;;;;;;;13.20;11.38;;;;;;;14.36;93.38;99520.03;5122876;28;20073;-58
2021/06/11 05:32:46;;;;;;;21.58;11.52;;;;;;;14.38;93.75;99523.44;5126509;28;20065;-58
2021/06/11 05:35:13;;;;;;;10.98;9.88;;;;;;;14.29;93.65;99522.06;5123036;28;20031;-58
2021/06/11 05:37:39;;;;;;;12.73;10.48;;;;;;;14.44;93.26;99512.78;5122874;28;20336;-58
2021/06/11 05:40:05;;;;;;;14.77;11.90;;;;;;;14.51;93.92;99518.59;5122725;28;20270;-58
2021/06/11 05:42:32;;;;;;;13.45;12.25;;;;;;;14.50;93.92;99522.09;5122508;28;20032;-59
2021/06/11 05:44:58;;;;;;;12.75;11.40;;;;;;;14.41;93.55;99517.25;5122772;28;20096;-59
2021/06/11 05:47:24;;;;;;;13.77;12.38;;;;;;;14.47;93.59;99517.00;5122628;28;20040;-59
2021/06/11 05:49:49;;;;;;;14.43;12.73;;;;;;;14.59;93.70;99513.06;5142523;28;20320;-59
2021/06/11 05:52:15;;;;;;;13.05;11.75;;;;;;;14.60;94.12;99509.53;5131461;28;20055;-58
2021/06/11 05:54:41;;;;;;;12.80;11.63;;;;;;;14.60;93.67;99504.34;5122931;28;20027;-59
2021/06/11 05:57:07;;;;;;;11.68;10.57;;;;;;;14.48;94.20;99513.50;5122732;28;20019;-58
2021/06/11 05:59:32;;;;;;;11.63;10.52;;;;;;;14.61;93.60;99517.31;5122746;28;20031;-59
2021/06/11 06:01:58;;;;;;;11.88;10.68;;;;;;;14.69;93.06;99513.56;5122439;28;20039;-58
2021/06/11 06:04:24;;;;;;;12.45;11.05;;;;;;;14.66;93.62;99515.41;5136243;28;20023;-59
2021/06/11 06:06:50;;;;;;;13.55;12.15;;;;;;;14.74;93.11;99516.84;5142577;28;20027;-58
2021/06/11 06:09:16;;;;;;;13.50;12.20;;;;;;;14.77;93.52;99514.94;5142715;28;20031;-59
2021/06/11 06:11:41;;;;;;;12.75;11.45;;;;;;;14.83;92.87;99522.50;5135955;28;20094;-58
2021/06/11 06:14:09;;;;;;;15.52;14.00;;;;;;;14.96;93.98;99522.84;5122940;28;20035;-58
2021/06/11 06:16:36;;;;;;;12.82;11.63;;;;;;;14.72;92.83;99490.84;5123795;28;20027;-59
2021/06/11 06:19:03;;;;;;;11.25;10.07;;;;;;;14.85;92.90;99509.41;5142380;28;20027;-59
2021/06/11 06:21:31;;;;;;;16.67;12.55;;;;;;;14.94;93.72;99516.00;5137750;28;20027;-59
2021/06/11 06:24:00;;;;;;;12.57;11.45;;;;;;;14.93;92.53;99522.13;5126130;28;20034;-59
2021/06/11 06:26:27;;;;;;;12.98;11.65;;;;;;;15.02;93.16;99519.09;5141288;28;20034;-58
2021/06/11 06:28:53;;;;;;;12.73;10.90;;;;;;;15.07;92.47;99522.38;5142798;27;20029;-59
2021/06/11 06:31:19;;;;;;;14.60;12.60;;;;;;;15.13;92.85;99519.50;5142110;27;20087;-59
2021/06/11 06:33:45;;;;;;;13.80;12.30;;;;;;;15.25;92.80;99515.53;5125180;27;20035;-58
2021/06/11 06:36:11;;;;;;;14.32;12.90;;;;;;;15.28;93.13;99515.41;5125282;27;20024;-59
2021/06/11 06:38:37;;;;;;;12.80;9.98;;;;;;;15.25;92.25;99514.66;5125337;27;20625;-59
2021/06/11 06:41:04;;;;;;;12.00;10.88;;;;;;;15.19;91.98;99523.59;5121622;27;20045;-58
2021/06/11 06:43:32;;;;;;;14.25;12.13;;;;;;;15.28;92.26;99519.78;5142891;27;20046;-58
2021/06/11 06:45:58;;;;;;;13.15;11.93;;;;;;;15.47;92.47;99512.81;5145922;27;20261;-58
2021/06/11 06:48:25;;;;;;;12.95;11.75;;;;;;;15.52;92.21;99517.84;5145867;27;20328;-59
2021/06/11 06:50:50;;;;;;;12.52;11.23;;;;;;;15.47;91.97;99518.03;5117531;28;20024;-58
2021/06/11 06:53:18;;;;;;;13.60;12.23;;;;;;;15.59;92.32;99521.00;5125745;27;20073;-59
2021/06/11 06:55:44;;;;;;;12.80;11.52;;;;;;;15.25;91.83;99528.59;5125846;27;20220;-58
2021/06/11 06:58:10;;;;;;;12.32;10.85;;;;;;;15.36;91.54;99526.34;5125541;27;20039;-58
2021/06/11 07:00:36;;;;;;;11.88;10.80;;;;;;;15.37;91.40;99516.75;5107342;27;20027;-58
2021/06/11 07:03:03;;;;;;;12.45;11.25;;;;;;;15.54;91.29;99529.06;5127644;27;20220;-57
2021/06/11 07:05:29;;;;;;;15.15;13.63;;;;;;;15.47;91.91;99527.63;5144837;27;20023;-58
2021/06/11 07:07:55;;;;;;;13.73;12.10;;;;;;;15.39;91.84;99527.13;5125503;27;20083;-58
2021/06/11 07:10:21;;;;;;;15.55;12.45;;;;;;;15.38;91.84;99526.28;5133353;27;20046;-59
2021/06/11 07:12:47;;;;;;;13.07;11.68;;;;;;;15.32;92.03;99526.53;5141567;27;20023;-57
2021/06/11 07:15:13;;;;;;;15.93;13.45;;;;;;;15.31;92.71;99522.25;5145242;27;20034;-57
2021/06/11 07:17:39;;;;;;;13.85;12.45;;;;;;;15.28;92.75;99523.22;5144966;27;20023;-57
2021/06/11 07:20:05;;;;;;;14.07;12.68;;;;;;;15.30;93.19;99531.81;5145365;27;20232;-58
2021/06/11 07:22:32;;;;;;;13.48;12.18;;;;;;;15.28;93.15;99532.81;5133562;27;20031;-59
2021/06/11 07:25:02;;;;;;;14.38;12.95;;;;;;;15.30;93.68;99521.38;5145087;27;20031;-59
2021/06/11 07:27:32;;;;;;;13.60;11.20;;;;;;;15.35;93.48;99523.81;5145091;27;20027;-58
2021/06/11 07:30:08;;;;;;;14.85;13.07;;;;;;;15.43;93.74;99518.25;5144902;27;20035;-58
2021/06/11 07:32:42;;;;;;;14.10;12.63;;;;;;;15.50;94.00;99517.88;5131272;27;20023;-58
2021/06/11 07:35:08;;;;;;;15.52;13.82;;;;;;;15.26;93.99;99495.50;5124590;27;20031;-58
2021/06/11 07:37:35;;;;;;;13.13;11.77;;;;;;;15.44;93.85;99522.56;5124573;28;20040;-59
2021/06/11 07:40:01;;;;;;;10.60;9.63;;;;;;;15.32;93.05;99524.78;5124087;28;20058;-58
2021/06/11 07:42:27;;;;;;;8.15;7.35;;;;;;;15.35;92.44;99523.81;5133040;27;20023;-58
2021/06/11 07:44:53;;;;;;;9.32;7.60;;;;;;;15.32;91.94;99540.44;5144673;27;20060;-58
2021/06/11 07:47:18;;;;;;;9.05;7.28;;;;;;;15.44;91.91;99533.00;5128934;27;20065;-58
2021/06/11 07:49:44;;;;;;;11.20;7.22;;;;;;;15.51;91.48;99526.59;5124642;28;20034;-58
2021/06/11 07:52:10;;;;;;;9.32;8.32;;;;;;;15.59;91.65;99528.84;5124459;27;20032;-58
2021/06/11 07:54:36;;;;;;;9.20;8.30;;;;;;;15.77;91.57;99532.41;5134292;27;20023;-58
2021/06/11 07:57:02;;;;;;;10.38;8.48;;;;;;;15.62;92.01;99520.88;5144476;27;20075;-58
2021/06/11 07:59:28;;;;;;;12.50;10.27;;;;;;;15.76;92.14;99530.69;5144052;27;20102;-58
2021/06/11 08:01:54;;;;;;;12.27;11.07;;;;;;;15.59;91.54;99528.84;5137747;27;20028;-58
2021/06/11 08:04:19;;;;;;;11.68;10.52;;;;;;;15.48;91.65;99538.00;5137278;27;20038;-58
2021/06/11 08:06:47;;;;;;;12.95;11.43;;;;;;;15.45;91.47;99537.28;5144115;27;20031;-58
2021/06/11 08:09:13;;;;;;;14.63;13.15;;;;;;;15.44;92.36;99533.84;5144191;27;20079;-58
2021/06/11 08:11:39;;;;;;;14.45;12.82;;;;;;;15.48;91.94;99535.41;5121592;27;20034;-58
2021/06/11 08:14:04;;;;;;;15.68;13.70;;;;;;;15.37;91.97;99537.63;5124226;27;20023;-59
2021/06/11 08:16:30;;;;;;;15.38;13.88;;;;;;;15.30;92.11;99542.25;5124091;28;20020;-60
2021/06/11 08:18:56;;;;;;;15.20;13.73;;;;;;;15.38;91.92;99534.13;5123865;27;20308;-59
2021/06/11 08:21:22;;;;;;;13.10;11.90;;;;;;;15.29;91.89;99542.31;5123562;28;20031;-60
2021/06/11 08:23:48;;;;;;;13.02;11.80;;;;;;;15.29;91.38;99545.81;5123619;27;20076;-59
2021/06/11 08:26:14;;;;;;;14.85;13.43;;;;;;;15.36;91.90;99542.00;5123706;28;20026;-59
2021/06/11 08:28:40;;;;;;;16.42;12.88;;;;;;;15.42;91.50;99540.03;5123970;27;20027;-59
2021/06/11 08:31:07;;;;;;;13.25;11.95;;;;;;;15.26;91.93;99530.25;5123798;28;20019;-59
2021/06/11 08:33:33;;;;;;;15.98;13.23;;;;;;;15.42;91.37;99543.50;5132737;27;20055;-59
2021/06/11 08:35:59;;;;;;;17.08;13.00;;;;;;;15.28;92.10;99532.81;5143571;27;20046;-59
2021/06/11 08:38:25;;;;;;;13.90;12.60;;;;;;;15.39;91.95;99540.16;5139662;27;20304;-60
2021/06/11 08:40:51;;;;;;;15.98;14.35;;;;;;;15.43;91.80;99545.19;5135597;27;20034;-59
2021/06/11 08:43:21;;;;;;;15.35;13.82;;;;;;;15.30;92.38;99551.84;5126192;27;20094;-59
2021/06/11 08:45:49;;;;;;;15.00;13.50;;;;;;;15.13;91.98;99539.53;5123651;28;20034;-59
2021/06/11 08:48:15;;;;;;;15.80;14.10;;;;;;;15.32;92.32;99553.50;5123456;28;20387;-59
2021/06/11 08:50:41;;;;;;;16.05;13.18;;;;;;;15.28;92.40;99554.53;5123155;28;20030;-59
2021/06/11 08:53:08;;;;;;;16.02;14.32;;;;;;;15.41;91.60;99554.00;5122894;28;20035;-59
2021/06/11 08:55:35;;;;;;;14.57;13.20;;;;;;;15.34;92.21;99554.25;5104992;27;20047;-59
2021/06/11 08:58:02;;;;;;;17.45;14.00;;;;;;;15.46;91.96;99542.47;5123197;28;20068;-59
2021/06/11 09:00:30;;;;;;;14.55;13.13;;;;;;;15.57;91.79;99546.34;5123359;27;20023;-58
2021/06/11 09:03:17;;;;;;;12.80;11.50;;;;;;;15.49;90.80;99552.75;5124369;28;20031;-59
2021/06/11 09:05:45;;;;;;;13.95;12.55;;;;;;;15.45;91.58;99538.16;5124547;27;20031;-59
2021/06/11 09:08:12;;;;;;;14.27;12.80;;;;;;;15.57;91.77;99544.56;5143096;27;20065;-58
2021/06/11 09:10:37;;;;;;;13.60;12.30;;;;;;;15.76;91.18;99538.53;5142793;27;20062;-58
2021/06/11 09:13:03;;;;;;;13.02;11.65;;;;;;;15.74;91.05;99540.38;5127756;27;20023;-59
2021/06/11 09:15:29;;;;;;;13.13;11.82;;;;;;;15.94;91.65;99532.50;5122902;28;20372;-59
2021/06/11 09:17:56;;;;;;;14.90;11.57;;;;;;;15.75;91.17;99534.22;5122957;28;20024;-59
2021/06/11 09:20:40;;;;;;;11.50;10.48;;;;;;;15.65;91.55;99525.97;5123147;28;20031;-59
2021/06/11 09:23:08;;;;;;;11.68;10.68;;;;;;;15.70;91.24;99514.41;5122897;28;20094;-59
2021/06/11 09:25:40;;;;;;;13.80;12.48;;;;;;;15.73;91.42;99536.06;5122904;28;20038;-59
2021/06/11 09:28:08;;;;;;;14.88;13.48;;;;;;;15.74;91.65;99528.16;5123059;28;20276;-59
2021/06/11 09:30:37;;;;;;;16.95;13.57;;;;;;;15.64;92.09;99534.72;5122792;28;20221;-59
2021/06/11 09:33:15;;;;;;;16.15;14.43;;;;;;;15.77;91.73;99545.47;5122660;28;20069;-59
2021/06/11 09:35:46;;;;;;;16.38;14.73;;;;;;;15.91;91.84;99526.59;5122815;28;20034;-59
2021/06/11 09:38:30;;;;;;;18.35;15.13;;;;;;;16.00;91.66;99529.63;5122901;28;20036;-59
2021/06/11 09:40:59;;;;;;;16.65;14.77;;;;;;;15.90;91.92;99533.56;5122969;28;20031;-59
2021/06/11 09:43:31;;;;;;;16.88;15.15;;;;;;;15.90;92.33;99532.72;5122715;28;20039;-60
2021/06/11 09:46:10;;;;;;;20.08;15.63;;;;;;;15.66;92.19;99484.13;5115690;28;20040;-60
2021/06/11 09:48:49;;;;;;;18.50;16.55;;;;;;;15.75;92.38;99489.81;5122954;28;20057;-60
2021/06/11 09:51:20;;;;;;;16.20;14.60;;;;;;;15.86;91.75;99480.63;5122892;28;20220;-60
2021/06/11 09:53:46;;;;;;;18.50;16.42;;;;;;;16.15;91.38;99529.81;5122399;28;20095;-60
2021/06/11 09:56:21;;;;;;;18.17;15.55;;;;;;;16.25;91.61;99525.84;5122769;28;20023;-60
2021/06/11 09:58:48;;;;;;;18.35;16.55;;;;;;;16.34;91.33;99528.00;5125197;28;20031;-60
2021/06/11 10:01:15;;;;;;;20.58;17.30;;;;;;;16.37;91.26;99520.03;5127706;28;20031;-59
2021/06/11 10:03:45;;;;;;;19.70;17.60;;;;;;;16.13;91.29;99477.63;5130663;27;20328;-60
2021/06/11 10:06:13;;;;;;;22.15;17.30;;;;;;;16.27;91.34;99526.59;5146443;27;20050;-60
2021/06/11 10:08:50;;;;;;;20.80;17.83;;;;;;;16.10;91.64;99479.53;5146127;27;20026;-59
2021/06/11 10:11:22;;;;;;;20.80;18.38;;;;;;;16.15;91.60;99480.19;5145434;27;20046;-59
2021/06/11 10:13:49;;;;;;;21.23;18.52;;;;;;;16.51;91.39;99526.34;5125525;27;20188;-59
2021/06/11 10:16:18;;;;;;;22.35;18.63;;;;;;;16.11;91.65;99481.25;5125866;28;20282;-59
2021/06/11 10:18:45;;;;;;;20.38;17.42;;;;;;;16.48;91.37;99529.13;5126047;27;20028;-59
2021/06/11 10:21:12;;;;;;;22.08;18.65;;;;;;;16.50;91.19;99535.13;5125768;27;20035;-59
2021/06/11 10:23:39;;;;;;;22.35;18.27;;;;;;;16.39;92.00;99536.50;5125209;27;20129;-59
2021/06/11 10:26:08;;;;;;;21.70;18.67;;;;;;;16.21;91.56;99504.22;5126121;27;20201;-60
2021/06/11 10:28:41;;;;;;;22.40;18.48;;;;;;;16.38;91.66;99532.16;5126310;27;20312;-59
2021/06/11 10:31:19;;;;;;;21.60;19.30;;;;;;;16.04;92.40;99493.75;5125980;27;20036;-60
2021/06/11 10:33:45;;;;;;;21.13;18.33;;;;;;;16.46;92.03;99533.56;5125972;27;20061;-60
2021/06/11 10:36:26;;;;;;;20.80;18.55;;;;;;;16.41;92.32;99543.41;5140297;27;20087;-60
2021/06/11 10:38:54;;;;;;;23.37;18.67;;;;;;;16.45;91.63;99530.13;5145998;27;20038;-60
2021/06/11 10:41:22;;;;;;;21.20;19.00;;;;;;;16.44;92.22;99538.03;5145708;27;20088;-60
2021/06/11 10:43:48;;;;;;;22.15;19.25;;;;;;;16.44;92.04;99532.81;5125200;27;20093;-59
2021/06/11 10:46:24;;;;;;;21.02;18.83;;;;;;;16.25;91.82;99484.03;5125784;27;20129;-59
2021/06/11 10:48:56;;;;;;;21.30;19.08;;;;;;;16.53;92.25;99540.19;5145938;27;20037;-59
2021/06/11 10:51:50;;;;;;;20.00;17.85;;;;;;;16.58;91.88;99543.44;5129551;27;20028;-59
2021/06/11 10:54:16;;;;;;;20.67;17.40;;;;;;;16.70;91.37;99536.75;5121140;27;20295;-59
2021/06/11 10:57:00;;;;;;;20.58;17.02;;;;;;;16.65;91.41;99537.00;5125802;27;20059;-60
2021/06/11 10:59:48;;;;;;;20.38;16.80;;;;;;;16.29;90.91;99454.22;5136280;27;20046;-58
2021/06/11 11:02:16;;;;;;;16.75;14.95;;;;;;;16.57;90.77;99544.34;5137160;27;20333;-59
2021/06/11 11:04:47;;;;;;;18.98;16.75;;;;;;;16.43;90.89;99484.06;5143296;27;20260;-60
2021/06/11 11:07:26;;;;;;;17.38;15.38;;;;;;;16.77;90.94;99526.84;5145591;27;20078;-60
2021/06/11 11:10:08;;;;;;;19.23;16.23;;;;;;;16.76;90.29;99499.00;5129413;27;20034;-60
2021/06/11 11:12:52;;;;;;;;;;;;;;;16.86;91.17;99527.25;5145556;27;20343;-60
2021/06/11 11:15:42;;;;;;;17.98;15.90;;;;;;;16.83;91.14;99521.31;5144272;27;19939;-60
2021/06/11 11:18:19;;;;;;;17.58;15.73;;;;;;;16.60;91.09;99488.44;5119448;28;20034;-60
2021/06/11 11:20:45;;;;;;;16.63;14.95;;;;;;;16.83;90.94;99521.31;5125290;27;20039;-60
2021/06/11 11:23:14;;;;;;;17.85;16.05;;;;;;;16.62;91.15;99470.94;5124839;27;20220;-60
2021/06/11 11:25:41;;;;;;;17.45;15.43;;;;;;;16.83;91.93;99523.91;5125280;27;20027;-60
2021/06/11 11:28:09;;;;;;;15.98;14.45;;;;;;;16.83;91.74;99523.91;5125202;27;20039;-59
2021/06/11 11:30:35;;;;;;;16.98;14.85;;;;;;;16.94;91.48;99523.41;5125144;27;20031;-59